Atwater, IL

9:30 PM CDT on August 28, 2014 (GMT -0500)
Carlinville Sumner Street | Change Station
CLOSE
Current Station
Personal Weather Station
Location: Carlinville, IL
Elevation: 500 ft
Nearby Weather Stations

Elev 500 ft 39.29 °N, 89.88 °W | Updated 5 seconds ago

Thunderstorm
Thunderstorm
71.1 °F
Feels Like 71.1 °F
N
0.0
Wind Variable Wind from WNW
Gusts 0.0 mph

Today
High -- | Low -- °F
--% Chance of Precip.
Yesterday
High -- | Low -- °F
Precip. -- in
6:23 AM 7:35 PM
Waxing Crescent, 11% visible
Pressure 30.01 in
Visibility 10.0 miles
Clouds Clear
Dew Point 69 °F
Humidity 94%
Rainfall 0.00 in
Snow Depth Not available.
UV 0 out of 12
Pollen 9.70 out of 12
Air Quality Not available.
Flu Activity Not available.
METAR K3LF 290215Z AUTO 00000KT 10SM -DZ CLR 22/21 A3001 RMK AO2 LTG DSNT W THRU NE T02210207

More Conditions Fewer Conditions

Pressure 30.01 in
Visibility 10.0 miles
Clouds Clear
Dew Point 69 °F
Humidity 94%
Rainfall 0.00 in
Snow Depth Not available.
UV 0 out of 12
Pollen 9.70 out of 12
Air Quality Not available.
Flu Activity Not available.
METAR K3LF 290215Z AUTO 00000KT 10SM -DZ CLR 22/21 A3001 RMK AO2 LTG DSNT W THRU NE T02210207

More Conditions Fewer Conditions

10-Day Weather Forecast

Almanac

Astronomy

Aug. 28, 2014 Rise Set
Actual Time 6:23 AM CDT 7:35 PM CDT
Civil Twilight 5:55 AM CDT 8:03 PM CDT
Nautical Twilight 5:22 AM CDT 8:36 PM CDT
Astronomical Twilight 4:47 AM CDT 9:10 PM CDT
Moon 9:14 AM CDT (8/28) 9:00 PM CDT (8/28)
Length of Visible Light 14h 07m
Length of Day
13h 12m
Tomorrow will be 2m 26s shorter.
Waxing Crescent, 11% of the Moon is Illuminated
Today
Waxing Crescent
Sep 2
First Quarter
Sep 8
Full
Sep 15
Last Quarter
Sep 24
New

Today's Extremes

State Highs State Lows

Community

WunderPhotos

Upload Photos

1,748,134 photos uploaded!

Nearby

Snow Depth

Station Depth Elevation
No new snow has been reported.

Earthquake Activity

City Distance Mag. Time & Date
No recent earthquake activity has been reported nearby.
Minimum magnitude displayed is 2.5.

Coastal Water Temperatures

Place Temperature
No Stations Reporting

Nearby Weather Stations